Atchison, Kansas
Current Conditions -  °F | °C
As of 4:53 AM on Friday 28 Nov 2014 (Local Time) from KSTJ Reporting Station
Clear Clear  
Wind Chill: 22°   Ceiling: Unl
Heat Index: 31°   Visibility: 10mi
Dew Point: 23°   Wind: 12mph
Humidity: 72%   Direction: 160°SSE
Pressure: 30.04"   Gusts: NA
Location:  39.56°N, 95.13°W
Report Text: KSTJ 281053Z AUTO 16010KT 10SM CLR M01/M05 A3004 RMK AO2 SLP180 T10061050
Loading
Personal Weather Stations






























Interactive Weather Map New forecast layout! Learn more

10-Day Weather Forecast

Advertisements
Track Severe Weather on mobile